»·PEaware :: UAL1535 KPDX-KLAX

UAL1535 :: KPDX-KLAX

FLIGHT INFORMATION

Flight Status: Arrived
Operator:
United Airlines
More flights by this operator :: More flights under this callsign
Pilot: Gareth H. (28072)
Aircraft: BOEING 737-800
(B738)
More flights by this aircraft type
Origin: KPDX Portland Intl
United States
Destination: KLAX Los Angeles Intl
United States
More flights between these airports :: More routes between these airports
Route: +CASCD2 JOGEN Q7 JAGWA BURGL IRNMN2
File this flight plan on PilotEdge
Remarks: PBN / A1B1C1D1S1S2 DOF / 200219 REG / N33286 EET / KZOA0042 KZAK0112 KZLA0124 OPR / UAL PER / C RMK / TCAS
Altitude:
(Current/Filed)
35,000ft
Speed:
(Current/Filed)
448kts
Departed: 19-Feb-20 02:39 PM
Arrived: 19-Feb-20 04:35 PM
Distance/Time
Traveled:
725nm/1:55
Distance/Time
To Go:
Arrived

Flight Plot

Page will automatically refresh every two minutes.

Flight plan parsing failed; only flown route is shown


Map Options




Map Legend


Flown Route
Filed Route
Departure Airport
Arrival Airport
Navaid (VOR, NDB)
Fix

Horizontal Profiles

Position Reports

Time Latitude Longitude Heading Altitude Ground
Speed
19-Feb-20 14:06 45.590245 -122.591564 209 39ft 0kts
19-Feb-20 14:07 45.590245 -122.591564 209 39ft 0kts
19-Feb-20 14:08 45.590245 -122.591564 209 39ft 0kts
19-Feb-20 14:09 45.590245 -122.591564 209 39ft 0kts
19-Feb-20 14:10 45.590245 -122.591564 209 39ft 0kts
19-Feb-20 14:11 45.590245 -122.591564 209 39ft 0kts
19-Feb-20 14:12 45.590245 -122.591564 209 39ft 0kts
19-Feb-20 14:13 45.590245 -122.591564 209 39ft 0kts
19-Feb-20 14:14 45.590245 -122.591563 209 39ft 0kts
19-Feb-20 14:15 45.590245 -122.591563 209 39ft 0kts
19-Feb-20 14:16 45.590245 -122.591563 209 39ft 0kts
19-Feb-20 14:17 45.590245 -122.591563 209 39ft 0kts
19-Feb-20 14:18 45.590245 -122.591563 209 39ft 0kts
19-Feb-20 14:19 45.590245 -122.591563 209 39ft 0kts
19-Feb-20 14:20 45.590245 -122.591563 209 39ft 0kts
19-Feb-20 14:21 45.590245 -122.591563 209 39ft 0kts
19-Feb-20 14:22 45.590245 -122.591563 209 39ft 0kts
19-Feb-20 14:23 45.590245 -122.591563 209 39ft 0kts
19-Feb-20 14:24 45.590245 -122.591563 209 39ft 0kts
19-Feb-20 14:25 45.590245 -122.591563 209 39ft 0kts
19-Feb-20 14:26 45.590246 -122.591563 209 39ft 0kts
19-Feb-20 14:27 45.590746 -122.591128 236 39ft 2kts
19-Feb-20 14:28 45.590744 -122.590576 299 39ft 0kts
19-Feb-20 14:29 45.590744 -122.590576 299 39ft 0kts
19-Feb-20 14:30 45.590744 -122.590576 299 39ft 0kts
19-Feb-20 14:31 45.590744 -122.590576 299 39ft 0kts
19-Feb-20 14:32 45.590744 -122.590576 299 39ft 0kts
19-Feb-20 14:33 45.590744 -122.590576 299 39ft 0kts
19-Feb-20 14:34 45.591160 -122.591645 298 39ft 7kts
19-Feb-20 14:35 45.592961 -122.596249 299 39ft 15kts
19-Feb-20 14:36 45.594377 -122.597584 43 39ft 0kts
19-Feb-20 14:37 45.594391 -122.597566 43 39ft 1kts
19-Feb-20 14:38 45.592690 -122.590209 118 40ft 94kts
19-Feb-20 14:39 45.573633 -122.536306 101 1820ft 165kts
19-Feb-20 14:40 45.564600 -122.456174 103 3858ft 236kts
19-Feb-20 14:41 45.547400 -122.361407 109 6258ft 252kts
19-Feb-20 14:42 45.498987 -122.287492 152 9112ft 269kts
19-Feb-20 14:43 45.421794 -122.256923 168 10978ft 323kts
19-Feb-20 14:44 45.330309 -122.230350 168 13517ft 346kts
19-Feb-20 14:45 45.233858 -122.202246 168 16205ft 362kts
19-Feb-20 14:46 45.138345 -122.174506 167 18545ft 377kts
19-Feb-20 14:47 45.036096 -122.134652 153 20820ft 389kts
19-Feb-20 14:48 44.937257 -122.066061 152 22885ft 402kts
19-Feb-20 14:49 44.835083 -121.995641 152 24781ft 413kts
19-Feb-20 14:50 44.730465 -121.923824 152 26476ft 423kts
19-Feb-20 14:51 44.623410 -121.850617 152 27970ft 434kts
19-Feb-20 14:52 44.513727 -121.775932 152 29335ft 444kts
19-Feb-20 14:53 44.401823 -121.700068 151 30633ft 451kts
19-Feb-20 14:54 44.283113 -121.640315 167 31927ft 460kts
19-Feb-20 14:55 44.156253 -121.611111 169 33185ft 465kts
19-Feb-20 14:56 44.028682 -121.581680 170 34497ft 465kts
19-Feb-20 14:57 43.900984 -121.552292 170 35274ft 469kts
19-Feb-20 14:58 43.773116 -121.523003 170 35273ft 464kts
19-Feb-20 14:59 43.645347 -121.493886 170 35274ft 468kts
19-Feb-20 15:00 43.518963 -121.465222 170 35275ft 467kts
19-Feb-20 15:01 43.390830 -121.436242 170 35275ft 467kts
19-Feb-20 15:02 43.262663 -121.407403 170 35267ft 467kts
19-Feb-20 15:03 43.134354 -121.378657 171 35261ft 468kts
19-Feb-20 15:04 43.005938 -121.350005 171 35195ft 467kts
19-Feb-20 15:05 42.878360 -121.321628 171 35190ft 468kts
19-Feb-20 15:06 42.750125 -121.293260 171 35190ft 467kts
19-Feb-20 15:07 42.622522 -121.265149 172 35190ft 461kts
19-Feb-20 15:08 42.495548 -121.237304 172 35192ft 467kts
19-Feb-20 15:09 42.367275 -121.209264 172 35191ft 466kts
19-Feb-20 15:10 42.239500 -121.181463 172 35193ft 466kts
19-Feb-20 15:11 42.112357 -121.153910 173 35192ft 460kts
19-Feb-20 15:12 41.986081 -121.126660 173 35193ft 460kts
19-Feb-20 15:13 41.860135 -121.099586 173 35190ft 457kts
19-Feb-20 15:14 41.735080 -121.072814 174 35199ft 455kts
19-Feb-20 15:15 41.609345 -121.046013 175 35201ft 460kts
19-Feb-20 15:16 41.483314 -121.019224 175 35200ft 459kts
19-Feb-20 15:17 41.357077 -120.992519 175 35201ft 459kts
19-Feb-20 15:18 41.230899 -120.965927 175 35201ft 460kts
19-Feb-20 15:19 41.103784 -120.939259 176 35203ft 467kts
19-Feb-20 15:20 40.975483 -120.915558 182 35208ft 460kts
19-Feb-20 15:21 40.849062 -120.906144 182 35246ft 461kts
19-Feb-20 15:22 40.721182 -120.895902 182 35224ft 461kts
19-Feb-20 15:23 40.592705 -120.885679 183 35223ft 465kts
19-Feb-20 15:24 40.464238 -120.875472 183 35223ft 463kts
19-Feb-20 15:25 40.335603 -120.865311 183 35224ft 464kts
19-Feb-20 15:26 40.206836 -120.855189 183 35213ft 463kts
19-Feb-20 15:27 40.078501 -120.845109 183 35213ft 463kts
19-Feb-20 15:28 39.950034 -120.835072 183 35213ft 463kts
19-Feb-20 15:29 39.821967 -120.825106 183 35189ft 463kts
19-Feb-20 15:30 39.693761 -120.815168 184 35183ft 461kts
19-Feb-20 15:31 39.565856 -120.805284 184 35185ft 461kts
19-Feb-20 15:33 39.438124 -120.795449 184 35185ft 461kts
19-Feb-20 15:34 39.310075 -120.785631 184 35186ft 461kts
19-Feb-20 15:35 39.182280 -120.775855 184 35185ft 456kts
19-Feb-20 15:36 39.055651 -120.766232 184 35151ft 457kts
19-Feb-20 15:37 38.928776 -120.756599 184 35163ft 457kts
19-Feb-20 15:38 38.801620 -120.747010 185 35167ft 459kts
19-Feb-20 15:39 38.674343 -120.737379 185 35165ft 453kts
19-Feb-20 15:40 38.548542 -120.727976 185 35168ft 455kts
19-Feb-20 15:41 38.422188 -120.718509 185 35150ft 455kts
19-Feb-20 15:42 38.296354 -120.709138 185 35151ft 455kts
19-Feb-20 15:43 38.170480 -120.699774 185 35149ft 449kts
19-Feb-20 15:44 38.046003 -120.690585 185 35151ft 451kts
19-Feb-20 15:45 37.920858 -120.681343 185 35151ft 451kts
19-Feb-20 15:46 37.796660 -120.672218 185 35141ft 451kts
19-Feb-20 15:47 37.671630 -120.663052 185 35141ft 448kts
19-Feb-20 15:48 37.547669 -120.654011 185 35142ft 449kts
19-Feb-20 15:49 37.423370 -120.644958 185 35105ft 448kts
19-Feb-20 15:50 37.298685 -120.628271 174 35135ft 461kts
19-Feb-20 15:51 37.174274 -120.587583 174 35133ft 459kts
19-Feb-20 15:51 37.071684 -120.554328 174 35135ft 460kts
19-Feb-20 15:53 36.926811 -120.507488 174 35142ft 459kts
19-Feb-20 15:54 36.803719 -120.467844 174 35145ft 460kts
19-Feb-20 15:54 36.700969 -120.434841 174 35144ft 456kts
19-Feb-20 15:56 36.557960 -120.389085 174 35147ft 456kts
19-Feb-20 15:56 36.455451 -120.356374 174 35137ft 456kts
19-Feb-20 15:58 36.312615 -120.310955 175 35123ft 455kts
19-Feb-20 15:58 36.210520 -120.278593 175 35121ft 453kts
19-Feb-20 15:59 36.088813 -120.240159 175 35124ft 453kts
19-Feb-20 16:00 35.966344 -120.201561 175 35123ft 454kts
19-Feb-20 16:01 35.847838 -120.164312 176 35106ft 441kts
19-Feb-20 16:02 35.728615 -120.127056 176 35100ft 445kts
19-Feb-20 16:03 35.612483 -120.067542 159 35101ft 468kts
19-Feb-20 16:04 35.500774 -119.983109 158 35100ft 469kts
19-Feb-20 16:05 35.389948 -119.899846 158 35110ft 469kts
19-Feb-20 16:06 35.279041 -119.815291 153 35120ft 474kts
19-Feb-20 16:07 35.173503 -119.716449 152 34441ft 483kts
19-Feb-20 16:08 35.066844 -119.616917 148 31481ft 480kts
19-Feb-20 16:09 34.962500 -119.519933 147 29151ft 456kts
19-Feb-20 16:10 34.863425 -119.429736 148 27129ft 432kts
19-Feb-20 16:11 34.768289 -119.344802 149 25114ft 415kts
19-Feb-20 16:12 34.677259 -119.264882 149 23269ft 396kts
19-Feb-20 16:13 34.587581 -119.187329 148 21265ft 403kts
19-Feb-20 16:14 34.498905 -119.109334 148 19281ft 385kts
19-Feb-20 16:15 34.413970 -119.034603 148 17357ft 370kts
19-Feb-20 16:16 34.331740 -118.963338 147 15475ft 358kts
19-Feb-20 16:17 34.253436 -118.892016 146 13621ft 347kts
19-Feb-20 16:18 34.179361 -118.823943 145 12517ft 317kts
19-Feb-20 16:19 34.115174 -118.756672 139 11237ft 309kts
19-Feb-20 16:20 34.052148 -118.686523 130 9946ft 298kts
19-Feb-20 16:21 34.022840 -118.595727 95 8569ft 294kts
19-Feb-20 16:22 34.014091 -118.499072 95 7423ft 275kts
19-Feb-20 16:23 34.015615 -118.413360 81 6501ft 243kts
19-Feb-20 16:24 34.023888 -118.333667 82 5395ft 237kts
19-Feb-20 16:25 34.031227 -118.256713 82 4378ft 224kts
19-Feb-20 16:26 34.037842 -118.184542 82 3598ft 207kts
19-Feb-20 16:27 34.044155 -118.113958 90 3588ft 215kts
19-Feb-20 16:28 34.000545 -118.080642 192 3577ft 204kts
19-Feb-20 16:29 33.964856 -118.127920 255 3594ft 192kts
19-Feb-20 16:30 33.956763 -118.192141 264 3245ft 193kts
19-Feb-20 16:31 33.950335 -118.256037 264 2222ft 197kts
19-Feb-20 16:32 33.943626 -118.321796 264 1145ft 180kts
19-Feb-20 16:33 33.938478 -118.371911 262 340ft 140kts
19-Feb-20 16:34 33.935694 -118.401447 277 112ft 26kts
19-Feb-20 16:35 33.936148 -118.403269 293 112ft 9kts
19-Feb-20 16:36 33.935909 -118.407944 274 112ft 15kts
19-Feb-20 16:37 33.937872 -118.409121 352 112ft 3kts
19-Feb-20 16:38 33.938506 -118.410694 264 112ft 9kts
19-Feb-20 16:39 33.942332 -118.412118 352 112ft 17kts
19-Feb-20 16:40 33.946943 -118.412602 23 112ft 14kts
19-Feb-20 16:41 33.947590 -118.407817 83 112ft 15kts
19-Feb-20 16:42 33.945957 -118.405874 253 112ft 0kts
19-Feb-20 16:43 33.945742 -118.405220 86 112ft 6kts
19-Feb-20 16:44 33.945779 -118.404689 84 112ft 0kts

Navigation Log

Ident Type
Flight plan parsing failed, navigation log unavailable